sensor_id;sensor_type;location;lat;lon;timestamp;P1;durP1;ratioP1;P2;durP2;ratioP2
10637;SDS011;47007;49.252;8.904;2023-03-14T00:00:24;1.27;;;0.10;;
10637;SDS011;47007;49.252;8.904;2023-03-14T00:01:10;0.47;;;0.17;;
10637;SDS011;47007;49.252;8.904;2023-03-14T00:01:53;0.95;;;0.20;;
10637;SDS011;47007;49.252;8.904;2023-03-14T00:02:35;0.40;;;0.20;;
10637;SDS011;47007;49.252;8.904;2023-03-14T00:03:17;1.00;;;0.10;;
10637;SDS011;47007;49.252;8.904;2023-03-14T00:03:59;1.55;;;0.20;;
10637;SDS011;47007;49.252;8.904;2023-03-14T00:04:41;0.20;;;0.20;;
10637;SDS011;47007;49.252;8.904;2023-03-14T00:05:22;0.63;;;0.28;;
10637;SDS011;47007;49.252;8.904;2023-03-14T00:06:04;0.15;;;0.15;;
10637;SDS011;47007;49.252;8.904;2023-03-14T00:06:47;1.27;;;0.17;;
10637;SDS011;47007;49.252;8.904;2023-03-14T00:07:30;1.75;;;0.52;;
10637;SDS011;47007;49.252;8.904;2023-03-14T00:08:15;1.08;;;0.10;;
10637;SDS011;47007;49.252;8.904;2023-03-14T00:08:57;0.98;;;0.10;;
10637;SDS011;47007;49.252;8.904;2023-03-14T00:09:39;0.50;;;0.20;;
10637;SDS011;47007;49.252;8.904;2023-03-14T00:10:21;0.43;;;0.10;;
10637;SDS011;47007;49.252;8.904;2023-03-14T00:11:48;0.98;;;0.15;;
10637;SDS011;47007;49.252;8.904;2023-03-14T00:12:30;1.15;;;0.20;;
10637;SDS011;47007;49.252;8.904;2023-03-14T00:13:12;0.73;;;0.15;;
10637;SDS011;47007;49.252;8.904;2023-03-14T00:13:54;0.40;;;0.10;;
10637;SDS011;47007;49.252;8.904;2023-03-14T00:14:36;0.20;;;0.20;;
10637;SDS011;47007;49.252;8.904;2023-03-14T00:15:18;0.22;;;0.10;;
10637;SDS011;47007;49.252;8.904;2023-03-14T00:16:03;0.68;;;0.20;;
10637;SDS011;47007;49.252;8.904;2023-03-14T00:16:46;0.77;;;0.20;;
10637;SDS011;47007;49.252;8.904;2023-03-14T00:17:29;0.90;;;0.25;;
10637;SDS011;47007;49.252;8.904;2023-03-14T00:18:11;0.13;;;0.13;;
10637;SDS011;47007;49.252;8.904;2023-03-14T00:18:52;0.32;;;0.10;;
10637;SDS011;47007;49.252;8.904;2023-03-14T00:19:34;0.82;;;0.20;;
10637;SDS011;47007;49.252;8.904;2023-03-14T00:20:16;0.20;;;0.13;;
10637;SDS011;47007;49.252;8.904;2023-03-14T00:20:58;0.55;;;0.25;;
10637;SDS011;47007;49.252;8.904;2023-03-14T00:21:40;1.08;;;0.10;;
10637;SDS011;47007;49.252;8.904;2023-03-14T00:22:22;0.57;;;0.20;;
10637;SDS011;47007;49.252;8.904;2023-03-14T00:23:04;0.75;;;0.20;;
10637;SDS011;47007;49.252;8.904;2023-03-14T00:23:45;0.38;;;0.17;;
10637;SDS011;47007;49.252;8.904;2023-03-14T00:24:27;0.60;;;0.10;;
10637;SDS011;47007;49.252;8.904;2023-03-14T00:25:09;0.30;;;0.10;;
10637;SDS011;47007;49.252;8.904;2023-03-14T00:25:52;0.47;;;0.10;;
10637;SDS011;47007;49.252;8.904;2023-03-14T00:26:34;0.38;;;0.10;;
10637;SDS011;47007;49.252;8.904;2023-03-14T00:27:15;0.28;;;0.10;;
10637;SDS011;47007;49.252;8.904;2023-03-14T00:27:58;0.55;;;0.20;;
10637;SDS011;47007;49.252;8.904;2023-03-14T00:28:40;0.77;;;0.20;;
10637;SDS011;47007;49.252;8.904;2023-03-14T00:29:23;0.70;;;0.20;;
10637;SDS011;47007;49.252;8.904;2023-03-14T00:30:05;0.95;;;0.20;;
10637;SDS011;47007;49.252;8.904;2023-03-14T00:30:49;1.08;;;0.10;;
10637;SDS011;47007;49.252;8.904;2023-03-14T00:31:30;0.40;;;0.20;;
10637;SDS011;47007;49.252;8.904;2023-03-14T00:32:12;1.00;;;0.10;;
10637;SDS011;47007;49.252;8.904;2023-03-14T00:32:54;0.10;;;0.10;;
10637;SDS011;47007;49.252;8.904;2023-03-14T00:33:36;0.77;;;0.20;;
10637;SDS011;47007;49.252;8.904;2023-03-14T00:34:18;1.38;;;0.20;;
10637;SDS011;47007;49.252;8.904;2023-03-14T00:35:00;0.28;;;0.10;;
10637;SDS011;47007;49.252;8.904;2023-03-14T00:35:42;0.85;;;0.10;;
10637;SDS011;47007;49.252;8.904;2023-03-14T00:36:23;0.45;;;0.20;;
10637;SDS011;47007;49.252;8.904;2023-03-14T00:37:05;0.17;;;0.10;;
10637;SDS011;47007;49.252;8.904;2023-03-14T00:37:47;0.10;;;0.10;;
10637;SDS011;47007;49.252;8.904;2023-03-14T00:38:29;0.70;;;0.20;;
10637;SDS011;47007;49.252;8.904;2023-03-14T00:39:11;1.05;;;0.10;;
10637;SDS011;47007;49.252;8.904;2023-03-14T00:39:53;0.40;;;0.10;;
10637;SDS011;47007;49.252;8.904;2023-03-14T00:40:38;0.32;;;0.10;;
10637;SDS011;47007;49.252;8.904;2023-03-14T00:41:21;0.57;;;0.20;;
10637;SDS011;47007;49.252;8.904;2023-03-14T00:42:04;0.32;;;0.20;;
10637;SDS011;47007;49.252;8.904;2023-03-14T00:42:45;1.90;;;0.50;;
10637;SDS011;47007;49.252;8.904;2023-03-14T00:43:27;2.83;;;1.77;;
10637;SDS011;47007;49.252;8.904;2023-03-14T00:44:09;5.07;;;3.67;;
10637;SDS011;47007;49.252;8.904;2023-03-14T00:44:50;5.22;;;2.80;;
10637;SDS011;47007;49.252;8.904;2023-03-14T00:45:32;2.08;;;0.93;;
10637;SDS011;47007;49.252;8.904;2023-03-14T00:46:14;0.47;;;0.30;;
10637;SDS011;47007;49.252;8.904;2023-03-14T00:46:57;0.63;;;0.30;;
10637;SDS011;47007;49.252;8.904;2023-03-14T00:47:39;13.73;;;7.43;;
10637;SDS011;47007;49.252;8.904;2023-03-14T00:48:22;9.07;;;3.97;;
10637;SDS011;47007;49.252;8.904;2023-03-14T00:49:03;21.92;;;10.75;;
10637;SDS011;47007;49.252;8.904;2023-03-14T00:49:45;15.15;;;7.60;;
10637;SDS011;47007;49.252;8.904;2023-03-14T00:50:26;4.65;;;2.58;;
10637;SDS011;47007;49.252;8.904;2023-03-14T00:51:08;3.05;;;1.00;;
10637;SDS011;47007;49.252;8.904;2023-03-14T00:51:50;0.90;;;0.30;;
10637;SDS011;47007;49.252;8.904;2023-03-14T00:52:32;0.52;;;0.28;;
10637;SDS011;47007;49.252;8.904;2023-03-14T00:53:14;0.60;;;0.20;;
10637;SDS011;47007;49.252;8.904;2023-03-14T00:53:56;0.55;;;0.20;;
10637;SDS011;47007;49.252;8.904;2023-03-14T00:54:38;0.55;;;0.30;;
10637;SDS011;47007;49.252;8.904;2023-03-14T00:55:20;2.53;;;0.20;;
10637;SDS011;47007;49.252;8.904;2023-03-14T00:56:02;1.20;;;0.20;;
10637;SDS011;47007;49.252;8.904;2023-03-14T00:56:45;0.57;;;0.10;;
10637;SDS011;47007;49.252;8.904;2023-03-14T00:57:27;0.52;;;0.30;;
10637;SDS011;47007;49.252;8.904;2023-03-14T00:58:12;1.45;;;0.20;;
10637;SDS011;47007;49.252;8.904;2023-03-14T00:58:55;0.77;;;0.20;;
10637;SDS011;47007;49.252;8.904;2023-03-14T00:59:37;2.17;;;0.20;;
10637;SDS011;47007;49.252;8.904;2023-03-14T01:00:19;0.25;;;0.10;;
10637;SDS011;47007;49.252;8.904;2023-03-14T01:01:08;1.67;;;0.30;;
10637;SDS011;47007;49.252;8.904;2023-03-14T01:01:51;0.30;;;0.20;;
10637;SDS011;47007;49.252;8.904;2023-03-14T01:02:33;0.77;;;0.20;;
10637;SDS011;47007;49.252;8.904;2023-03-14T01:03:15;1.15;;;0.40;;
10637;SDS011;47007;49.252;8.904;2023-03-14T01:03:57;1.23;;;0.40;;
10637;SDS011;47007;49.252;8.904;2023-03-14T01:04:39;0.98;;;0.30;;
10637;SDS011;47007;49.252;8.904;2023-03-14T01:05:21;2.17;;;0.20;;
10637;SDS011;47007;49.252;8.904;2023-03-14T01:06:56;2.30;;;0.30;;
10637;SDS011;47007;49.252;8.904;2023-03-14T01:07:38;1.92;;;0.25;;
10637;SDS011;47007;49.252;8.904;2023-03-14T01:08:19;0.95;;;0.20;;
10637;SDS011;47007;49.252;8.904;2023-03-14T01:09:01;1.80;;;0.40;;
10637;SDS011;47007;49.252;8.904;2023-03-14T01:09:44;1.48;;;0.30;;
10637;SDS011;47007;49.252;8.904;2023-03-14T01:10:25;0.85;;;0.30;;
10637;SDS011;47007;49.252;8.904;2023-03-14T01:11:08;1.55;;;0.20;;
10637;SDS011;47007;49.252;8.904;2023-03-14T01:11:51;1.13;;;0.20;;
10637;SDS011;47007;49.252;8.904;2023-03-14T01:12:32;0.28;;;0.10;;
10637;SDS011;47007;49.252;8.904;2023-03-14T01:13:16;1.45;;;0.20;;
10637;SDS011;47007;49.252;8.904;2023-03-14T01:13:58;0.82;;;0.20;;
10637;SDS011;47007;49.252;8.904;2023-03-14T01:14:42;0.85;;;0.20;;
10637;SDS011;47007;49.252;8.904;2023-03-14T01:15:24;0.45;;;0.10;;
10637;SDS011;47007;49.252;8.904;2023-03-14T01:16:06;0.28;;;0.20;;
10637;SDS011;47007;49.252;8.904;2023-03-14T01:16:51;0.70;;;0.22;;
10637;SDS011;47007;49.252;8.904;2023-03-14T01:17:34;0.95;;;0.20;;
10637;SDS011;47007;49.252;8.904;2023-03-14T01:18:15;1.50;;;0.15;;
10637;SDS011;47007;49.252;8.904;2023-03-14T01:18:57;1.55;;;0.20;;
10637;SDS011;47007;49.252;8.904;2023-03-14T01:19:39;1.33;;;0.20;;
10637;SDS011;47007;49.252;8.904;2023-03-14T01:20:20;0.65;;;0.13;;
10637;SDS011;47007;49.252;8.904;2023-03-14T01:21:24;0.25;;;0.10;;
10637;SDS011;47007;49.252;8.904;2023-03-14T01:22:09;2.67;;;0.30;;
10637;SDS011;47007;49.252;8.904;2023-03-14T01:22:52;0.52;;;0.20;;
10637;SDS011;47007;49.252;8.904;2023-03-14T01:23:33;0.35;;;0.20;;
10637;SDS011;47007;49.252;8.904;2023-03-14T01:24:15;0.57;;;0.20;;
10637;SDS011;47007;49.252;8.904;2023-03-14T01:24:57;0.70;;;0.22;;
10637;SDS011;47007;49.252;8.904;2023-03-14T01:25:40;0.50;;;0.17;;
10637;SDS011;47007;49.252;8.904;2023-03-14T01:26:24;1.50;;;0.20;;
10637;SDS011;47007;49.252;8.904;2023-03-14T01:27:07;1.58;;;0.25;;
10637;SDS011;47007;49.252;8.904;2023-03-14T01:27:48;0.57;;;0.20;;
10637;SDS011;47007;49.252;8.904;2023-03-14T01:28:30;0.60;;;0.17;;
10637;SDS011;47007;49.252;8.904;2023-03-14T01:29:12;0.50;;;0.20;;
10637;SDS011;47007;49.252;8.904;2023-03-14T01:29:54;0.40;;;0.20;;
10637;SDS011;47007;49.252;8.904;2023-03-14T01:30:36;0.77;;;0.20;;
10637;SDS011;47007;49.252;8.904;2023-03-14T01:31:18;1.35;;;0.47;;
10637;SDS011;47007;49.252;8.904;2023-03-14T01:32:00;1.17;;;0.40;;
10637;SDS011;47007;49.252;8.904;2023-03-14T01:32:41;0.77;;;0.60;;
10637;SDS011;47007;49.252;8.904;2023-03-14T01:33:23;1.67;;;0.77;;
10637;SDS011;47007;49.252;8.904;2023-03-14T01:34:05;1.25;;;0.50;;
10637;SDS011;47007;49.252;8.904;2023-03-14T01:34:47;1.67;;;0.60;;
10637;SDS011;47007;49.252;8.904;2023-03-14T01:35:28;0.88;;;0.30;;
10637;SDS011;47007;49.252;8.904;2023-03-14T01:36:11;2.53;;;0.40;;
10637;SDS011;47007;49.252;8.904;2023-03-14T01:36:54;1.55;;;0.30;;
10637;SDS011;47007;49.252;8.904;2023-03-14T01:37:36;1.10;;;0.30;;
10637;SDS011;47007;49.252;8.904;2023-03-14T01:38:20;1.17;;;0.20;;
10637;SDS011;47007;49.252;8.904;2023-03-14T01:39:03;0.20;;;0.20;;
10637;SDS011;47007;49.252;8.904;2023-03-14T01:39:47;0.40;;;0.20;;
10637;SDS011;47007;49.252;8.904;2023-03-14T01:40:29;1.48;;;0.30;;
10637;SDS011;47007;49.252;8.904;2023-03-14T01:41:29;1.00;;;0.30;;
10637;SDS011;47007;49.252;8.904;2023-03-14T01:42:12;0.75;;;0.20;;
10637;SDS011;47007;49.252;8.904;2023-03-14T01:42:55;0.75;;;0.20;;
10637;SDS011;47007;49.252;8.904;2023-03-14T01:43:47;0.40;;;0.17;;
10637;SDS011;47007;49.252;8.904;2023-03-14T01:46:42;1.63;;;0.20;;
10637;SDS011;47007;49.252;8.904;2023-03-14T01:47:26;0.73;;;0.10;;
10637;SDS011;47007;49.252;8.904;2023-03-14T01:48:09;1.98;;;0.20;;
10637;SDS011;47007;49.252;8.904;2023-03-14T01:48:52;0.40;;;0.20;;
10637;SDS011;47007;49.252;8.904;2023-03-14T01:49:41;2.20;;;0.20;;
10637;SDS011;47007;49.252;8.904;2023-03-14T01:50:25;1.05;;;0.20;;
10637;SDS011;47007;49.252;8.904;2023-03-14T01:51:08;1.67;;;0.28;;
10637;SDS011;47007;49.252;8.904;2023-03-14T01:52:43;0.52;;;0.15;;
10637;SDS011;47007;49.252;8.904;2023-03-14T01:53:27;3.22;;;0.20;;
10637;SDS011;47007;49.252;8.904;2023-03-14T01:55:12;0.63;;;0.20;;
10637;SDS011;47007;49.252;8.904;2023-03-14T01:55:57;0.30;;;0.20;;
10637;SDS011;47007;49.252;8.904;2023-03-14T01:56:39;0.43;;;0.10;;
10637;SDS011;47007;49.252;8.904;2023-03-14T01:58:08;0.43;;;0.20;;
10637;SDS011;47007;49.252;8.904;2023-03-14T01:58:50;1.05;;;0.30;;
10637;SDS011;47007;49.252;8.904;2023-03-14T01:59:33;0.20;;;0.10;;
10637;SDS011;47007;49.252;8.904;2023-03-14T02:00:19;2.17;;;0.20;;
10637;SDS011;47007;49.252;8.904;2023-03-14T02:01:03;0.28;;;0.20;;
10637;SDS011;47007;49.252;8.904;2023-03-14T02:01:46;0.65;;;0.20;;
10637;SDS011;47007;49.252;8.904;2023-03-14T02:02:30;0.85;;;0.20;;
10637;SDS011;47007;49.252;8.904;2023-03-14T02:03:14;0.88;;;0.20;;
10637;SDS011;47007;49.252;8.904;2023-03-14T02:03:59;0.95;;;0.20;;
10637;SDS011;47007;49.252;8.904;2023-03-14T02:04:44;0.35;;;0.20;;
10637;SDS011;47007;49.252;8.904;2023-03-14T02:05:30;1.27;;;0.20;;
10637;SDS011;47007;49.252;8.904;2023-03-14T02:06:33;1.30;;;0.20;;
10637;SDS011;47007;49.252;8.904;2023-03-14T02:07:33;0.30;;;0.10;;
10637;SDS011;47007;49.252;8.904;2023-03-14T02:08:25;1.08;;;0.20;;
10637;SDS011;47007;49.252;8.904;2023-03-14T02:09:13;3.40;;;0.20;;
10637;SDS011;47007;49.252;8.904;2023-03-14T02:09:55;0.80;;;0.17;;
10637;SDS011;47007;49.252;8.904;2023-03-14T02:10:46;1.38;;;0.30;;
10637;SDS011;47007;49.252;8.904;2023-03-14T02:11:34;0.40;;;0.20;;
10637;SDS011;47007;49.252;8.904;2023-03-14T02:12:19;0.52;;;0.20;;
10637;SDS011;47007;49.252;8.904;2023-03-14T02:13:18;0.47;;;0.20;;
10637;SDS011;47007;49.252;8.904;2023-03-14T02:14:20;0.82;;;0.15;;
10637;SDS011;47007;49.252;8.904;2023-03-14T02:15:27;1.05;;;0.10;;
10637;SDS011;47007;49.252;8.904;2023-03-14T02:16:32;0.35;;;0.15;;
10637;SDS011;47007;49.252;8.904;2023-03-14T02:17:19;0.77;;;0.22;;
10637;SDS011;47007;49.252;8.904;2023-03-14T02:18:18;0.82;;;0.20;;
10637;SDS011;47007;49.252;8.904;2023-03-14T02:19:12;0.10;;;0.10;;
10637;SDS011;47007;49.252;8.904;2023-03-14T02:22:20;0.70;;;0.30;;
10637;SDS011;47007;49.252;8.904;2023-03-14T02:23:16;0.70;;;0.35;;
10637;SDS011;47007;49.252;8.904;2023-03-14T02:24:15;22.27;;;14.65;;
10637;SDS011;47007;49.252;8.904;2023-03-14T02:26:28;12.93;;;10.90;;
10637;SDS011;47007;49.252;8.904;2023-03-14T02:27:18;3.80;;;3.40;;
10637;SDS011;47007;49.252;8.904;2023-03-14T02:28:01;18.90;;;15.43;;
10637;SDS011;47007;49.252;8.904;2023-03-14T02:28:43;36.33;;;24.48;;
10637;SDS011;47007;49.252;8.904;2023-03-14T02:29:25;41.17;;;27.88;;
10637;SDS011;47007;49.252;8.904;2023-03-14T02:30:17;36.63;;;27.98;;
10637;SDS011;47007;49.252;8.904;2023-03-14T02:31:04;22.50;;;19.83;;
10637;SDS011;47007;49.252;8.904;2023-03-14T02:31:48;34.42;;;26.55;;
10637;SDS011;47007;49.252;8.904;2023-03-14T02:32:31;9.70;;;7.22;;
10637;SDS011;47007;49.252;8.904;2023-03-14T02:33:17;21.92;;;16.67;;
10637;SDS011;47007;49.252;8.904;2023-03-14T02:34:00;22.55;;;16.80;;
10637;SDS011;47007;49.252;8.904;2023-03-14T02:34:44;35.72;;;25.55;;
10637;SDS011;47007;49.252;8.904;2023-03-14T02:35:32;31.73;;;22.52;;
10637;SDS011;47007;49.252;8.904;2023-03-14T02:36:34;34.03;;;25.40;;
10637;SDS011;47007;49.252;8.904;2023-03-14T02:37:16;18.55;;;14.10;;
10637;SDS011;47007;49.252;8.904;2023-03-14T02:38:02;19.20;;;14.20;;
10637;SDS011;47007;49.252;8.904;2023-03-14T02:38:56;14.38;;;10.05;;
10637;SDS011;47007;49.252;8.904;2023-03-14T02:39:57;12.85;;;10.85;;
10637;SDS011;47007;49.252;8.904;2023-03-14T02:40:40;18.08;;;14.70;;
10637;SDS011;47007;49.252;8.904;2023-03-14T02:41:22;5.60;;;4.20;;
10637;SDS011;47007;49.252;8.904;2023-03-14T02:42:13;3.30;;;3.00;;
10637;SDS011;47007;49.252;8.904;2023-03-14T02:42:55;5.53;;;4.47;;
10637;SDS011;47007;49.252;8.904;2023-03-14T02:43:37;1.27;;;1.00;;
10637;SDS011;47007;49.252;8.904;2023-03-14T02:44:22;1.98;;;1.80;;
10637;SDS011;47007;49.252;8.904;2023-03-14T02:45:49;1.77;;;1.67;;
10637;SDS011;47007;49.252;8.904;2023-03-14T02:46:34;0.73;;;0.40;;
10637;SDS011;47007;49.252;8.904;2023-03-14T02:47:16;0.60;;;0.30;;
10637;SDS011;47007;49.252;8.904;2023-03-14T02:47:59;0.30;;;0.10;;
10637;SDS011;47007;49.252;8.904;2023-03-14T02:48:49;0.60;;;0.17;;
10637;SDS011;47007;49.252;8.904;2023-03-14T02:49:44;1.40;;;0.30;;
10637;SDS011;47007;49.252;8.904;2023-03-14T02:50:28;1.92;;;0.22;;
10637;SDS011;47007;49.252;8.904;2023-03-14T02:51:15;0.70;;;0.30;;
10637;SDS011;47007;49.252;8.904;2023-03-14T02:52:00;1.33;;;0.20;;
10637;SDS011;47007;49.252;8.904;2023-03-14T02:52:41;1.20;;;0.20;;
10637;SDS011;47007;49.252;8.904;2023-03-14T02:53:25;0.47;;;0.13;;
10637;SDS011;47007;49.252;8.904;2023-03-14T02:54:11;0.65;;;0.20;;
10637;SDS011;47007;49.252;8.904;2023-03-14T02:54:53;0.68;;;0.10;;
10637;SDS011;47007;49.252;8.904;2023-03-14T02:55:35;1.63;;;0.32;;
10637;SDS011;47007;49.252;8.904;2023-03-14T02:56:22;0.57;;;0.20;;
10637;SDS011;47007;49.252;8.904;2023-03-14T02:57:04;0.30;;;0.10;;
10637;SDS011;47007;49.252;8.904;2023-03-14T02:57:46;0.45;;;0.20;;
10637;SDS011;47007;49.252;8.904;2023-03-14T02:58:27;0.70;;;0.20;;
10637;SDS011;47007;49.252;8.904;2023-03-14T02:59:17;0.15;;;0.10;;
10637;SDS011;47007;49.252;8.904;2023-03-14T03:00:03;0.10;;;0.10;;
10637;SDS011;47007;49.252;8.904;2023-03-14T03:00:49;1.42;;;0.38;;
10637;SDS011;47007;49.252;8.904;2023-03-14T03:01:32;1.35;;;0.20;;
10637;SDS011;47007;49.252;8.904;2023-03-14T03:02:14;1.40;;;0.20;;
10637;SDS011;47007;49.252;8.904;2023-03-14T03:02:56;1.02;;;0.22;;
10637;SDS011;47007;49.252;8.904;2023-03-14T03:03:38;1.20;;;0.20;;
10637;SDS011;47007;49.252;8.904;2023-03-14T03:04:20;1.13;;;0.20;;
10637;SDS011;47007;49.252;8.904;2023-03-14T03:05:01;1.38;;;0.30;;
10637;SDS011;47007;49.252;8.904;2023-03-14T03:05:47;1.10;;;0.20;;
10637;SDS011;47007;49.252;8.904;2023-03-14T03:06:29;1.15;;;0.30;;
10637;SDS011;47007;49.252;8.904;2023-03-14T03:07:11;0.45;;;0.10;;
10637;SDS011;47007;49.252;8.904;2023-03-14T03:07:53;1.05;;;0.20;;
10637;SDS011;47007;49.252;8.904;2023-03-14T03:08:35;1.17;;;0.20;;
10637;SDS011;47007;49.252;8.904;2023-03-14T03:09:16;0.65;;;0.20;;
10637;SDS011;47007;49.252;8.904;2023-03-14T03:09:58;1.40;;;0.20;;
10637;SDS011;47007;49.252;8.904;2023-03-14T03:10:40;1.10;;;0.20;;
10637;SDS011;47007;49.252;8.904;2023-03-14T03:11:21;2.05;;;0.10;;
10637;SDS011;47007;49.252;8.904;2023-03-14T03:12:03;0.52;;;0.30;;
10637;SDS011;47007;49.252;8.904;2023-03-14T03:12:45;0.20;;;0.15;;
10637;SDS011;47007;49.252;8.904;2023-03-14T03:13:27;0.25;;;0.10;;
10637;SDS011;47007;49.252;8.904;2023-03-14T03:14:10;0.80;;;0.20;;
10637;SDS011;47007;49.252;8.904;2023-03-14T03:14:52;0.75;;;0.20;;
10637;SDS011;47007;49.252;8.904;2023-03-14T03:15:34;0.52;;;0.20;;
10637;SDS011;47007;49.252;8.904;2023-03-14T03:16:15;0.80;;;0.20;;
10637;SDS011;47007;49.252;8.904;2023-03-14T03:16:57;0.82;;;0.20;;
10637;SDS011;47007;49.252;8.904;2023-03-14T03:17:39;0.88;;;0.20;;
10637;SDS011;47007;49.252;8.904;2023-03-14T03:18:21;0.10;;;0.10;;
10637;SDS011;47007;49.252;8.904;2023-03-14T03:19:02;0.25;;;0.10;;
10637;SDS011;47007;49.252;8.904;2023-03-14T03:19:44;0.88;;;0.17;;
10637;SDS011;47007;49.252;8.904;2023-03-14T03:20:26;0.57;;;0.20;;
10637;SDS011;47007;49.252;8.904;2023-03-14T03:21:07;0.68;;;0.20;;
10637;SDS011;47007;49.252;8.904;2023-03-14T03:21:50;0.50;;;0.20;;
10637;SDS011;47007;49.252;8.904;2023-03-14T03:22:32;0.90;;;0.20;;
10637;SDS011;47007;49.252;8.904;2023-03-14T03:23:16;0.98;;;0.20;;
10637;SDS011;47007;49.252;8.904;2023-03-14T03:23:57;1.17;;;0.17;;
10637;SDS011;47007;49.252;8.904;2023-03-14T03:24:39;0.22;;;0.20;;
10637;SDS011;47007;49.252;8.904;2023-03-14T03:25:20;1.13;;;0.20;;
10637;SDS011;47007;49.252;8.904;2023-03-14T03:26:04;0.10;;;0.10;;
10637;SDS011;47007;49.252;8.904;2023-03-14T03:26:46;0.75;;;0.10;;
10637;SDS011;47007;49.252;8.904;2023-03-14T03:27:29;0.40;;;0.10;;
10637;SDS011;47007;49.252;8.904;2023-03-14T03:28:13;2.35;;;0.30;;
10637;SDS011;47007;49.252;8.904;2023-03-14T03:28:54;0.73;;;0.20;;
10637;SDS011;47007;49.252;8.904;2023-03-14T03:29:37;0.55;;;0.10;;
10637;SDS011;47007;49.252;8.904;2023-03-14T03:30:19;0.77;;;0.10;;
10637;SDS011;47007;49.252;8.904;2023-03-14T03:31:08;0.60;;;0.10;;
10637;SDS011;47007;49.252;8.904;2023-03-14T03:31:52;1.10;;;0.20;;
10637;SDS011;47007;49.252;8.904;2023-03-14T03:32:34;1.63;;;0.30;;
10637;SDS011;47007;49.252;8.904;2023-03-14T03:33:16;0.88;;;0.20;;
10637;SDS011;47007;49.252;8.904;2023-03-14T03:33:59;0.40;;;0.20;;
10637;SDS011;47007;49.252;8.904;2023-03-14T03:34:41;0.80;;;0.20;;
10637;SDS011;47007;49.252;8.904;2023-03-14T03:35:23;0.95;;;0.20;;
10637;SDS011;47007;49.252;8.904;2023-03-14T03:36:06;0.70;;;0.10;;
10637;SDS011;47007;49.252;8.904;2023-03-14T03:36:50;0.88;;;0.20;;
10637;SDS011;47007;49.252;8.904;2023-03-14T03:37:32;1.42;;;0.30;;
10637;SDS011;47007;49.252;8.904;2023-03-14T03:38:15;0.10;;;0.10;;
10637;SDS011;47007;49.252;8.904;2023-03-14T03:38:59;0.55;;;0.20;;
10637;SDS011;47007;49.252;8.904;2023-03-14T03:39:41;1.65;;;0.38;;
10637;SDS011;47007;49.252;8.904;2023-03-14T03:40:23;1.05;;;0.20;;
10637;SDS011;47007;49.252;8.904;2023-03-14T03:41:06;0.60;;;0.15;;
10637;SDS011;47007;49.252;8.904;2023-03-14T03:41:49;1.08;;;0.20;;
10637;SDS011;47007;49.252;8.904;2023-03-14T03:42:31;1.15;;;0.28;;
10637;SDS011;47007;49.252;8.904;2023-03-14T03:43:13;1.27;;;0.40;;
10637;SDS011;47007;49.252;8.904;2023-03-14T03:43:58;1.05;;;0.20;;
10637;SDS011;47007;49.252;8.904;2023-03-14T03:44:39;2.97;;;0.30;;
10637;SDS011;47007;49.252;8.904;2023-03-14T03:45:23;1.42;;;0.20;;
10637;SDS011;47007;49.252;8.904;2023-03-14T03:46:08;1.10;;;0.20;;
10637;SDS011;47007;49.252;8.904;2023-03-14T03:46:50;0.47;;;0.10;;
10637;SDS011;47007;49.252;8.904;2023-03-14T03:47:32;0.20;;;0.10;;
10637;SDS011;47007;49.252;8.904;2023-03-14T03:48:14;0.88;;;0.20;;
10637;SDS011;47007;49.252;8.904;2023-03-14T03:48:56;1.73;;;0.30;;
10637;SDS011;47007;49.252;8.904;2023-03-14T03:49:42;0.90;;;0.17;;
10637;SDS011;47007;49.252;8.904;2023-03-14T03:50:25;0.60;;;0.10;;
10637;SDS011;47007;49.252;8.904;2023-03-14T03:51:06;0.30;;;0.10;;
10637;SDS011;47007;49.252;8.904;2023-03-14T03:51:50;1.67;;;0.20;;
10637;SDS011;47007;49.252;8.904;2023-03-14T03:52:32;1.35;;;0.20;;
10637;SDS011;47007;49.252;8.904;2023-03-14T03:53:13;2.20;;;0.10;;
10637;SDS011;47007;49.252;8.904;2023-03-14T03:54:03;0.82;;;0.20;;
10637;SDS011;47007;49.252;8.904;2023-03-14T03:54:47;1.70;;;0.20;;
10637;SDS011;47007;49.252;8.904;2023-03-14T03:55:29;0.68;;;0.20;;
10637;SDS011;47007;49.252;8.904;2023-03-14T03:56:10;0.68;;;0.20;;
10637;SDS011;47007;49.252;8.904;2023-03-14T03:56:53;1.02;;;0.30;;
10637;SDS011;47007;49.252;8.904;2023-03-14T03:57:36;0.60;;;0.20;;
10637;SDS011;47007;49.252;8.904;2023-03-14T03:58:17;1.23;;;0.28;;
10637;SDS011;47007;49.252;8.904;2023-03-14T03:58:59;0.20;;;0.20;;
10637;SDS011;47007;49.252;8.904;2023-03-14T03:59:41;1.23;;;0.20;;
10637;SDS011;47007;49.252;8.904;2023-03-14T04:00:22;1.10;;;0.20;;
10637;SDS011;47007;49.252;8.904;2023-03-14T04:01:05;1.27;;;0.13;;
10637;SDS011;47007;49.252;8.904;2023-03-14T04:01:48;0.60;;;0.20;;
10637;SDS011;47007;49.252;8.904;2023-03-14T04:02:30;1.55;;;0.20;;
10637;SDS011;47007;49.252;8.904;2023-03-14T04:03:12;1.27;;;0.20;;
10637;SDS011;47007;49.252;8.904;2023-03-14T04:03:53;1.30;;;0.20;;
10637;SDS011;47007;49.252;8.904;2023-03-14T04:04:36;0.75;;;0.20;;
10637;SDS011;47007;49.252;8.904;2023-03-14T04:05:19;1.25;;;0.13;;
10637;SDS011;47007;49.252;8.904;2023-03-14T04:06:09;1.25;;;0.20;;
10637;SDS011;47007;49.252;8.904;2023-03-14T04:06:53;0.55;;;0.10;;
10637;SDS011;47007;49.252;8.904;2023-03-14T04:07:35;1.25;;;0.20;;
10637;SDS011;47007;49.252;8.904;2023-03-14T04:08:17;2.70;;;0.25;;
10637;SDS011;47007;49.252;8.904;2023-03-14T04:08:59;0.52;;;0.25;;
10637;SDS011;47007;49.252;8.904;2023-03-14T04:09:55;0.95;;;0.30;;
10637;SDS011;47007;49.252;8.904;2023-03-14T04:11:03;1.88;;;0.40;;
10637;SDS011;47007;49.252;8.904;2023-03-14T04:12:11;1.40;;;0.20;;
10637;SDS011;47007;49.252;8.904;2023-03-14T04:13:11;0.70;;;0.10;;
10637;SDS011;47007;49.252;8.904;2023-03-14T04:13:54;1.45;;;0.45;;
10637;SDS011;47007;49.252;8.904;2023-03-14T04:14:35;0.65;;;0.20;;
10637;SDS011;47007;49.252;8.904;2023-03-14T04:15:31;2.45;;;0.30;;
10637;SDS011;47007;49.252;8.904;2023-03-14T04:16:17;0.40;;;0.25;;
10637;SDS011;47007;49.252;8.904;2023-03-14T04:17:01;0.65;;;0.15;;
10637;SDS011;47007;49.252;8.904;2023-03-14T04:17:44;1.35;;;0.20;;
10637;SDS011;47007;49.252;8.904;2023-03-14T04:18:28;0.68;;;0.25;;
10637;SDS011;47007;49.252;8.904;2023-03-14T04:19:11;1.13;;;0.30;;
10637;SDS011;47007;49.252;8.904;2023-03-14T04:19:53;0.95;;;0.20;;
10637;SDS011;47007;49.252;8.904;2023-03-14T04:20:38;0.93;;;0.10;;
10637;SDS011;47007;49.252;8.904;2023-03-14T04:21:20;0.98;;;0.22;;
10637;SDS011;47007;49.252;8.904;2023-03-14T04:22:06;1.75;;;0.20;;
10637;SDS011;47007;49.252;8.904;2023-03-14T04:22:57;1.17;;;0.30;;
10637;SDS011;47007;49.252;8.904;2023-03-14T04:23:40;0.85;;;0.20;;
10637;SDS011;47007;49.252;8.904;2023-03-14T04:24:21;1.33;;;0.20;;
10637;SDS011;47007;49.252;8.904;2023-03-14T04:25:03;1.65;;;0.25;;
10637;SDS011;47007;49.252;8.904;2023-03-14T04:25:50;0.93;;;0.10;;
10637;SDS011;47007;49.252;8.904;2023-03-14T04:26:33;2.33;;;0.20;;
10637;SDS011;47007;49.252;8.904;2023-03-14T04:27:15;1.15;;;0.20;;
10637;SDS011;47007;49.252;8.904;2023-03-14T04:27:58;0.28;;;0.20;;
10637;SDS011;47007;49.252;8.904;2023-03-14T04:28:43;1.13;;;0.20;;
10637;SDS011;47007;49.252;8.904;2023-03-14T04:29:24;0.45;;;0.10;;
10637;SDS011;47007;49.252;8.904;2023-03-14T04:30:06;1.30;;;0.10;;
10637;SDS011;47007;49.252;8.904;2023-03-14T04:31:06;2.70;;;0.32;;
10637;SDS011;47007;49.252;8.904;2023-03-14T04:31:52;3.10;;;0.22;;
10637;SDS011;47007;49.252;8.904;2023-03-14T04:32:34;0.80;;;0.17;;
10637;SDS011;47007;49.252;8.904;2023-03-14T04:33:15;2.00;;;0.38;;
10637;SDS011;47007;49.252;8.904;2023-03-14T04:34:04;0.70;;;0.20;;
10637;SDS011;47007;49.252;8.904;2023-03-14T04:34:50;1.42;;;0.28;;
10637;SDS011;47007;49.252;8.904;2023-03-14T04:35:33;0.70;;;0.30;;
10637;SDS011;47007;49.252;8.904;2023-03-14T04:36:20;1.23;;;0.20;;